sensor_id;sensor_type;location;lat;lon;timestamp;P1;durP1;ratioP1;P2;durP2;ratioP2
5458;SDS011;2752;49.992;8.422;2022-09-21T00:01:10;4.80;;;1.90;;
5458;SDS011;2752;49.992;8.422;2022-09-21T00:03:38;6.73;;;2.90;;
5458;SDS011;2752;49.992;8.422;2022-09-21T00:06:07;9.70;;;2.43;;
5458;SDS011;2752;49.992;8.422;2022-09-21T00:08:37;9.80;;;2.80;;
5458;SDS011;2752;49.992;8.422;2022-09-21T00:11:04;5.67;;;2.67;;
5458;SDS011;2752;49.992;8.422;2022-09-21T00:13:31;5.37;;;2.70;;
5458;SDS011;2752;49.992;8.422;2022-09-21T00:15:59;8.80;;;3.13;;
5458;SDS011;2752;49.992;8.422;2022-09-21T00:18:26;6.43;;;3.10;;
5458;SDS011;2752;49.992;8.422;2022-09-21T00:20:53;5.33;;;3.40;;
5458;SDS011;2752;49.992;8.422;2022-09-21T00:23:19;11.60;;;3.33;;
5458;SDS011;2752;49.992;8.422;2022-09-21T00:25:49;9.67;;;3.40;;
5458;SDS011;2752;49.992;8.422;2022-09-21T00:28:15;5.50;;;3.13;;
5458;SDS011;2752;49.992;8.422;2022-09-21T00:30:42;8.03;;;2.67;;
5458;SDS011;2752;49.992;8.422;2022-09-21T00:33:09;5.20;;;2.67;;
5458;SDS011;2752;49.992;8.422;2022-09-21T00:35:35;7.80;;;3.77;;
5458;SDS011;2752;49.992;8.422;2022-09-21T00:38:03;5.17;;;3.30;;
5458;SDS011;2752;49.992;8.422;2022-09-21T00:40:30;5.77;;;3.10;;
5458;SDS011;2752;49.992;8.422;2022-09-21T00:43:11;7.43;;;3.63;;
5458;SDS011;2752;49.992;8.422;2022-09-21T00:45:39;6.10;;;2.63;;
5458;SDS011;2752;49.992;8.422;2022-09-21T00:48:06;11.77;;;3.30;;
5458;SDS011;2752;49.992;8.422;2022-09-21T00:50:34;8.20;;;3.50;;
5458;SDS011;2752;49.992;8.422;2022-09-21T00:53:02;8.20;;;3.60;;
5458;SDS011;2752;49.992;8.422;2022-09-21T00:55:31;8.97;;;3.70;;
5458;SDS011;2752;49.992;8.422;2022-09-21T00:58:02;9.75;;;4.20;;
5458;SDS011;2752;49.992;8.422;2022-09-21T01:00:34;6.50;;;3.30;;
5458;SDS011;2752;49.992;8.422;2022-09-21T01:03:01;10.47;;;3.53;;
5458;SDS011;2752;49.992;8.422;2022-09-21T01:05:29;9.90;;;3.30;;
5458;SDS011;2752;49.992;8.422;2022-09-21T01:07:56;12.50;;;3.30;;
5458;SDS011;2752;49.992;8.422;2022-09-21T01:10:27;8.35;;;3.70;;
5458;SDS011;2752;49.992;8.422;2022-09-21T01:13:01;6.50;;;3.40;;
5458;SDS011;2752;49.992;8.422;2022-09-21T01:15:36;9.30;;;2.80;;
5458;SDS011;2752;49.992;8.422;2022-09-21T01:18:10;5.23;;;3.20;;
5458;SDS011;2752;49.992;8.422;2022-09-21T01:20:50;12.40;;;2.70;;
5458;SDS011;2752;49.992;8.422;2022-09-21T01:23:37;7.73;;;2.90;;
5458;SDS011;2752;49.992;8.422;2022-09-21T01:26:14;4.47;;;2.70;;
5458;SDS011;2752;49.992;8.422;2022-09-21T01:29:01;7.33;;;3.87;;
5458;SDS011;2752;49.992;8.422;2022-09-21T01:31:45;4.20;;;3.20;;
5458;SDS011;2752;49.992;8.422;2022-09-21T01:34:17;5.10;;;2.60;;
5458;SDS011;2752;49.992;8.422;2022-09-21T01:36:49;9.27;;;3.30;;
5458;SDS011;2752;49.992;8.422;2022-09-21T01:39:19;8.03;;;3.00;;
5458;SDS011;2752;49.992;8.422;2022-09-21T01:41:48;8.70;;;3.30;;
5458;SDS011;2752;49.992;8.422;2022-09-21T01:44:20;6.00;;;3.07;;
5458;SDS011;2752;49.992;8.422;2022-09-21T01:46:50;6.80;;;3.13;;
5458;SDS011;2752;49.992;8.422;2022-09-21T01:49:20;7.97;;;3.33;;
5458;SDS011;2752;49.992;8.422;2022-09-21T01:51:52;3.90;;;2.87;;
5458;SDS011;2752;49.992;8.422;2022-09-21T01:54:26;18.95;;;3.25;;
5458;SDS011;2752;49.992;8.422;2022-09-21T05:12:08;17.80;;;6.70;;
5458;SDS011;2752;49.992;8.422;2022-09-21T05:51:45;18.40;;;7.70;;
5458;SDS011;2752;49.992;8.422;2022-09-21T06:24:08;20.85;;;8.60;;
5458;SDS011;2752;49.992;8.422;2022-09-21T06:33:57;14.10;;;8.00;;
5458;SDS011;2752;49.992;8.422;2022-09-21T06:43:44;18.50;;;10.00;;
5458;SDS011;2752;49.992;8.422;2022-09-21T06:48:38;21.55;;;10.10;;
5458;SDS011;2752;49.992;8.422;2022-09-21T07:00:52;22.77;;;9.97;;
5458;SDS011;2752;49.992;8.422;2022-09-21T07:03:21;21.50;;;10.20;;
5458;SDS011;2752;49.992;8.422;2022-09-21T07:05:47;19.80;;;10.00;;
5458;SDS011;2752;49.992;8.422;2022-09-21T07:08:15;26.40;;;12.20;;
5458;SDS011;2752;49.992;8.422;2022-09-21T07:10:41;17.95;;;10.55;;
5458;SDS011;2752;49.992;8.422;2022-09-21T07:13:08;23.80;;;10.50;;
5458;SDS011;2752;49.992;8.422;2022-09-21T07:15:35;23.47;;;10.10;;
5458;SDS011;2752;49.992;8.422;2022-09-21T07:18:09;26.57;;;11.43;;
5458;SDS011;2752;49.992;8.422;2022-09-21T07:20:37;23.33;;;10.50;;
5458;SDS011;2752;49.992;8.422;2022-09-21T07:23:08;19.90;;;10.65;;
5458;SDS011;2752;49.992;8.422;2022-09-21T07:25:36;19.60;;;10.00;;
5458;SDS011;2752;49.992;8.422;2022-09-21T07:28:03;20.90;;;10.00;;
5458;SDS011;2752;49.992;8.422;2022-09-21T07:30:30;15.90;;;9.73;;
5458;SDS011;2752;49.992;8.422;2022-09-21T07:32:56;19.90;;;8.60;;
5458;SDS011;2752;49.992;8.422;2022-09-21T07:35:23;15.70;;;8.17;;
5458;SDS011;2752;49.992;8.422;2022-09-21T07:37:51;14.27;;;7.10;;
5458;SDS011;2752;49.992;8.422;2022-09-21T07:40:20;13.83;;;7.00;;
5458;SDS011;2752;49.992;8.422;2022-09-21T07:42:47;13.03;;;7.10;;
5458;SDS011;2752;49.992;8.422;2022-09-21T07:45:13;11.80;;;6.27;;
5458;SDS011;2752;49.992;8.422;2022-09-21T07:47:40;17.67;;;6.70;;
5458;SDS011;2752;49.992;8.422;2022-09-21T07:50:07;13.43;;;5.93;;
5458;SDS011;2752;49.992;8.422;2022-09-21T07:52:34;8.50;;;4.73;;
5458;SDS011;2752;49.992;8.422;2022-09-21T07:55:02;17.37;;;6.30;;
5458;SDS011;2752;49.992;8.422;2022-09-21T07:57:29;11.67;;;5.40;;
5458;SDS011;2752;49.992;8.422;2022-09-21T08:00:13;12.43;;;5.10;;
5458;SDS011;2752;49.992;8.422;2022-09-21T08:02:40;9.57;;;4.70;;
5458;SDS011;2752;49.992;8.422;2022-09-21T08:05:07;8.43;;;4.80;;
5458;SDS011;2752;49.992;8.422;2022-09-21T08:07:34;7.47;;;4.10;;
5458;SDS011;2752;49.992;8.422;2022-09-21T08:10:02;11.57;;;4.40;;
5458;SDS011;2752;49.992;8.422;2022-09-21T08:12:28;9.53;;;4.70;;
5458;SDS011;2752;49.992;8.422;2022-09-21T08:14:55;15.13;;;5.57;;
5458;SDS011;2752;49.992;8.422;2022-09-21T08:17:22;11.10;;;3.90;;
5458;SDS011;2752;49.992;8.422;2022-09-21T08:19:48;9.70;;;5.10;;
5458;SDS011;2752;49.992;8.422;2022-09-21T08:22:15;8.07;;;4.33;;
5458;SDS011;2752;49.992;8.422;2022-09-21T08:24:42;10.53;;;4.63;;
5458;SDS011;2752;49.992;8.422;2022-09-21T08:27:11;9.33;;;4.30;;
5458;SDS011;2752;49.992;8.422;2022-09-21T08:29:38;9.50;;;4.07;;
5458;SDS011;2752;49.992;8.422;2022-09-21T08:32:05;8.00;;;4.07;;
5458;SDS011;2752;49.992;8.422;2022-09-21T08:34:31;9.70;;;4.57;;
5458;SDS011;2752;49.992;8.422;2022-09-21T08:36:58;9.27;;;4.43;;
5458;SDS011;2752;49.992;8.422;2022-09-21T08:39:25;9.77;;;4.00;;
5458;SDS011;2752;49.992;8.422;2022-09-21T08:44:55;12.20;;;3.83;;
5458;SDS011;2752;49.992;8.422;2022-09-21T08:47:27;18.77;;;5.20;;
5458;SDS011;2752;49.992;8.422;2022-09-21T08:50:02;29.17;;;5.13;;
5458;SDS011;2752;49.992;8.422;2022-09-21T08:52:31;9.03;;;4.50;;
5458;SDS011;2752;49.992;8.422;2022-09-21T08:54:59;9.97;;;4.20;;
5458;SDS011;2752;49.992;8.422;2022-09-21T08:57:30;11.37;;;4.10;;
5458;SDS011;2752;49.992;8.422;2022-09-21T08:59:58;9.90;;;4.23;;
5458;SDS011;2752;49.992;8.422;2022-09-21T09:02:32;7.90;;;3.37;;
5458;SDS011;2752;49.992;8.422;2022-09-21T09:05:11;15.07;;;4.07;;
5458;SDS011;2752;49.992;8.422;2022-09-21T09:08:02;4.30;;;3.33;;
5458;SDS011;2752;49.992;8.422;2022-09-21T09:10:43;5.10;;;2.37;;
5458;SDS011;2752;49.992;8.422;2022-09-21T09:13:27;8.17;;;2.70;;
5458;SDS011;2752;49.992;8.422;2022-09-21T09:16:05;5.70;;;2.67;;
5458;SDS011;2752;49.992;8.422;2022-09-21T09:18:41;6.47;;;2.60;;
5458;SDS011;2752;49.992;8.422;2022-09-21T09:21:15;6.93;;;2.60;;
5458;SDS011;2752;49.992;8.422;2022-09-21T09:23:47;4.10;;;1.67;;
5458;SDS011;2752;49.992;8.422;2022-09-21T09:26:20;3.90;;;1.63;;
5458;SDS011;2752;49.992;8.422;2022-09-21T09:28:54;6.13;;;1.70;;
5458;SDS011;2752;49.992;8.422;2022-09-21T09:31:27;3.40;;;1.60;;
5458;SDS011;2752;49.992;8.422;2022-09-21T09:33:56;3.60;;;2.30;;
5458;SDS011;2752;49.992;8.422;2022-09-21T09:36:26;4.30;;;2.07;;
5458;SDS011;2752;49.992;8.422;2022-09-21T09:38:57;4.10;;;1.70;;
5458;SDS011;2752;49.992;8.422;2022-09-21T09:41:39;7.70;;;2.10;;
5458;SDS011;2752;49.992;8.422;2022-09-21T09:47:19;4.90;;;1.40;;
5458;SDS011;2752;49.992;8.422;2022-09-21T09:49:59;2.40;;;1.10;;
5458;SDS011;2752;49.992;8.422;2022-09-21T09:52:31;12.40;;;1.63;;
5458;SDS011;2752;49.992;8.422;2022-09-21T09:54:58;8.00;;;1.60;;
5458;SDS011;2752;49.992;8.422;2022-09-21T09:57:26;4.03;;;1.30;;
5458;SDS011;2752;49.992;8.422;2022-09-21T09:59:57;3.70;;;1.10;;
5458;SDS011;2752;49.992;8.422;2022-09-21T10:02:27;3.60;;;1.43;;
5458;SDS011;2752;49.992;8.422;2022-09-21T10:04:55;3.13;;;1.30;;
5458;SDS011;2752;49.992;8.422;2022-09-21T10:07:32;5.63;;;1.30;;
5458;SDS011;2752;49.992;8.422;2022-09-21T10:09:59;4.20;;;1.20;;
5458;SDS011;2752;49.992;8.422;2022-09-21T10:12:26;1.03;;;0.70;;
5458;SDS011;2752;49.992;8.422;2022-09-21T10:14:55;3.17;;;1.07;;
5458;SDS011;2752;49.992;8.422;2022-09-21T10:17:25;2.60;;;1.10;;
5458;SDS011;2752;49.992;8.422;2022-09-21T10:19:57;6.00;;;1.20;;
5458;SDS011;2752;49.992;8.422;2022-09-21T10:22:25;2.30;;;0.80;;
5458;SDS011;2752;49.992;8.422;2022-09-21T10:24:53;6.57;;;1.70;;
5458;SDS011;2752;49.992;8.422;2022-09-21T10:27:24;2.97;;;1.10;;
5458;SDS011;2752;49.992;8.422;2022-09-21T10:29:52;4.47;;;1.40;;
5458;SDS011;2752;49.992;8.422;2022-09-21T10:32:21;1.10;;;0.90;;
5458;SDS011;2752;49.992;8.422;2022-09-21T10:37:42;4.40;;;1.20;;
5458;SDS011;2752;49.992;8.422;2022-09-21T10:40:22;7.37;;;1.30;;
5458;SDS011;2752;49.992;8.422;2022-09-21T10:42:51;4.33;;;1.10;;
5458;SDS011;2752;49.992;8.422;2022-09-21T10:45:20;3.33;;;1.13;;
5458;SDS011;2752;49.992;8.422;2022-09-21T10:47:51;9.30;;;1.27;;
5458;SDS011;2752;49.992;8.422;2022-09-21T10:50:21;1.83;;;0.90;;
5458;SDS011;2752;49.992;8.422;2022-09-21T10:52:53;1.83;;;1.10;;
5458;SDS011;2752;49.992;8.422;2022-09-21T10:55:23;3.03;;;1.00;;
5458;SDS011;2752;49.992;8.422;2022-09-21T10:57:52;3.20;;;1.30;;
5458;SDS011;2752;49.992;8.422;2022-09-21T11:00:28;2.10;;;1.10;;
5458;SDS011;2752;49.992;8.422;2022-09-21T11:03:01;1.47;;;0.90;;
5458;SDS011;2752;49.992;8.422;2022-09-21T11:05:50;3.90;;;1.10;;
5458;SDS011;2752;49.992;8.422;2022-09-21T11:08:19;3.53;;;1.13;;
5458;SDS011;2752;49.992;8.422;2022-09-21T11:10:51;1.83;;;0.97;;
5458;SDS011;2752;49.992;8.422;2022-09-21T11:13:30;3.23;;;1.10;;
5458;SDS011;2752;49.992;8.422;2022-09-21T11:16:00;4.80;;;0.90;;
5458;SDS011;2752;49.992;8.422;2022-09-21T11:18:38;2.20;;;0.80;;
5458;SDS011;2752;49.992;8.422;2022-09-21T11:21:17;2.33;;;0.97;;
5458;SDS011;2752;49.992;8.422;2022-09-21T11:23:54;2.10;;;1.30;;
5458;SDS011;2752;49.992;8.422;2022-09-21T11:26:33;3.23;;;1.10;;
5458;SDS011;2752;49.992;8.422;2022-09-21T11:29:07;2.23;;;1.17;;
5458;SDS011;2752;49.992;8.422;2022-09-21T11:31:43;1.83;;;0.90;;
5458;SDS011;2752;49.992;8.422;2022-09-21T11:34:25;3.23;;;1.10;;
5458;SDS011;2752;49.992;8.422;2022-09-21T11:37:03;2.20;;;0.70;;
5458;SDS011;2752;49.992;8.422;2022-09-21T11:39:42;2.03;;;0.80;;
5458;SDS011;2752;49.992;8.422;2022-09-21T11:42:22;2.20;;;0.87;;
5458;SDS011;2752;49.992;8.422;2022-09-21T11:44:58;6.50;;;1.33;;
5458;SDS011;2752;49.992;8.422;2022-09-21T11:47:35;2.20;;;0.77;;
5458;SDS011;2752;49.992;8.422;2022-09-21T11:55:53;7.87;;;1.13;;
5458;SDS011;2752;49.992;8.422;2022-09-21T11:58:38;2.10;;;0.70;;
5458;SDS011;2752;49.992;8.422;2022-09-21T12:01:16;1.70;;;1.13;;
5458;SDS011;2752;49.992;8.422;2022-09-21T12:04:00;4.73;;;1.00;;
5458;SDS011;2752;49.992;8.422;2022-09-21T12:06:57;1.90;;;1.00;;
5458;SDS011;2752;49.992;8.422;2022-09-21T12:09:45;1.43;;;0.70;;
5458;SDS011;2752;49.992;8.422;2022-09-21T12:12:27;1.70;;;0.83;;
5458;SDS011;2752;49.992;8.422;2022-09-21T12:14:59;4.00;;;0.90;;
5458;SDS011;2752;49.992;8.422;2022-09-21T12:17:32;2.97;;;0.90;;
5458;SDS011;2752;49.992;8.422;2022-09-21T12:20:09;2.30;;;0.73;;
5458;SDS011;2752;49.992;8.422;2022-09-21T12:22:43;10.33;;;0.93;;
5458;SDS011;2752;49.992;8.422;2022-09-21T12:25:12;1.23;;;0.93;;
5458;SDS011;2752;49.992;8.422;2022-09-21T12:27:42;2.23;;;0.90;;
5458;SDS011;2752;49.992;8.422;2022-09-21T12:30:13;2.00;;;0.70;;
5458;SDS011;2752;49.992;8.422;2022-09-21T12:32:43;4.77;;;0.90;;
5458;SDS011;2752;49.992;8.422;2022-09-21T12:35:19;1.73;;;0.60;;
5458;SDS011;2752;49.992;8.422;2022-09-21T12:37:54;6.50;;;2.97;;
5458;SDS011;2752;49.992;8.422;2022-09-21T12:40:27;2.20;;;0.90;;
5458;SDS011;2752;49.992;8.422;2022-09-21T12:43:02;8.03;;;1.00;;
5458;SDS011;2752;49.992;8.422;2022-09-21T12:45:36;1.43;;;0.90;;
5458;SDS011;2752;49.992;8.422;2022-09-21T12:48:08;1.37;;;0.80;;
5458;SDS011;2752;49.992;8.422;2022-09-21T12:50:41;1.00;;;0.70;;
5458;SDS011;2752;49.992;8.422;2022-09-21T12:53:14;1.23;;;0.80;;
5458;SDS011;2752;49.992;8.422;2022-09-21T12:55:51;2.50;;;0.80;;
5458;SDS011;2752;49.992;8.422;2022-09-21T12:58:33;3.00;;;1.13;;
5458;SDS011;2752;49.992;8.422;2022-09-21T13:01:12;2.17;;;0.83;;
5458;SDS011;2752;49.992;8.422;2022-09-21T13:03:52;5.43;;;0.93;;
5458;SDS011;2752;49.992;8.422;2022-09-21T13:06:41;11.63;;;1.20;;
5458;SDS011;2752;49.992;8.422;2022-09-21T13:09:20;1.37;;;0.60;;
5458;SDS011;2752;49.992;8.422;2022-09-21T13:11:49;4.47;;;1.00;;
5458;SDS011;2752;49.992;8.422;2022-09-21T13:14:20;1.57;;;1.10;;
5458;SDS011;2752;49.992;8.422;2022-09-21T13:16:52;2.33;;;0.67;;
5458;SDS011;2752;49.992;8.422;2022-09-21T13:19:23;3.93;;;1.17;;
5458;SDS011;2752;49.992;8.422;2022-09-21T13:22:10;2.00;;;0.77;;
5458;SDS011;2752;49.992;8.422;2022-09-21T13:24:44;1.10;;;0.90;;
5458;SDS011;2752;49.992;8.422;2022-09-21T13:33:30;1.80;;;0.70;;
5458;SDS011;2752;49.992;8.422;2022-09-21T13:36:06;1.67;;;0.93;;
5458;SDS011;2752;49.992;8.422;2022-09-21T13:41:42;0.87;;;0.70;;
5458;SDS011;2752;49.992;8.422;2022-09-21T13:44:20;1.57;;;0.80;;
5458;SDS011;2752;49.992;8.422;2022-09-21T13:47:06;2.00;;;0.80;;
5458;SDS011;2752;49.992;8.422;2022-09-21T13:49:39;1.73;;;0.77;;
5458;SDS011;2752;49.992;8.422;2022-09-21T13:52:26;3.13;;;0.90;;
5458;SDS011;2752;49.992;8.422;2022-09-21T13:54:57;1.73;;;0.60;;
5458;SDS011;2752;49.992;8.422;2022-09-21T13:57:27;2.50;;;0.80;;
5458;SDS011;2752;49.992;8.422;2022-09-21T14:00:03;1.70;;;0.90;;
5458;SDS011;2752;49.992;8.422;2022-09-21T14:02:53;1.13;;;0.60;;
5458;SDS011;2752;49.992;8.422;2022-09-21T14:05:24;2.73;;;0.80;;
5458;SDS011;2752;49.992;8.422;2022-09-21T14:07:58;3.07;;;0.97;;
5458;SDS011;2752;49.992;8.422;2022-09-21T14:10:27;1.47;;;0.80;;
5458;SDS011;2752;49.992;8.422;2022-09-21T14:12:58;1.30;;;0.83;;
5458;SDS011;2752;49.992;8.422;2022-09-21T14:15:32;9.00;;;1.03;;
5458;SDS011;2752;49.992;8.422;2022-09-21T14:21:12;2.17;;;0.80;;
5458;SDS011;2752;49.992;8.422;2022-09-21T14:26:35;3.43;;;0.83;;
5458;SDS011;2752;49.992;8.422;2022-09-21T14:29:18;2.23;;;1.00;;
5458;SDS011;2752;49.992;8.422;2022-09-21T14:31:47;5.53;;;1.00;;
5458;SDS011;2752;49.992;8.422;2022-09-21T14:34:19;2.30;;;0.80;;
5458;SDS011;2752;49.992;8.422;2022-09-21T14:36:49;2.33;;;1.00;;
5458;SDS011;2752;49.992;8.422;2022-09-21T14:39:20;3.13;;;0.80;;
5458;SDS011;2752;49.992;8.422;2022-09-21T14:41:50;3.67;;;0.80;;
5458;SDS011;2752;49.992;8.422;2022-09-21T14:44:23;1.43;;;0.80;;
5458;SDS011;2752;49.992;8.422;2022-09-21T14:47:04;4.73;;;1.30;;
5458;SDS011;2752;49.992;8.422;2022-09-21T14:49:45;2.50;;;0.80;;
5458;SDS011;2752;49.992;8.422;2022-09-21T14:52:28;1.10;;;0.80;;
5458;SDS011;2752;49.992;8.422;2022-09-21T14:55:05;1.77;;;1.00;;
5458;SDS011;2752;49.992;8.422;2022-09-21T14:57:44;1.07;;;0.70;;
5458;SDS011;2752;49.992;8.422;2022-09-21T15:00:36;1.80;;;0.93;;
5458;SDS011;2752;49.992;8.422;2022-09-21T15:03:08;1.37;;;0.90;;
5458;SDS011;2752;49.992;8.422;2022-09-21T15:05:51;1.50;;;0.90;;
5458;SDS011;2752;49.992;8.422;2022-09-21T15:08:25;1.10;;;0.77;;
5458;SDS011;2752;49.992;8.422;2022-09-21T15:11:25;2.20;;;0.80;;
5458;SDS011;2752;49.992;8.422;2022-09-21T15:16:48;2.57;;;0.90;;
5458;SDS011;2752;49.992;8.422;2022-09-21T15:19:20;1.67;;;0.90;;
5458;SDS011;2752;49.992;8.422;2022-09-21T15:21:49;2.20;;;0.80;;
5458;SDS011;2752;49.992;8.422;2022-09-21T15:24:18;2.03;;;1.00;;
5458;SDS011;2752;49.992;8.422;2022-09-21T15:26:47;1.67;;;1.00;;
5458;SDS011;2752;49.992;8.422;2022-09-21T15:29:19;2.67;;;0.97;;
5458;SDS011;2752;49.992;8.422;2022-09-21T15:31:50;6.63;;;0.83;;
5458;SDS011;2752;49.992;8.422;2022-09-21T15:34:18;5.30;;;0.90;;
5458;SDS011;2752;49.992;8.422;2022-09-21T15:36:45;2.10;;;0.93;;
5458;SDS011;2752;49.992;8.422;2022-09-21T15:39:22;2.37;;;1.00;;
5458;SDS011;2752;49.992;8.422;2022-09-21T15:41:53;3.20;;;0.87;;
5458;SDS011;2752;49.992;8.422;2022-09-21T15:44:41;3.70;;;1.50;;
5458;SDS011;2752;49.992;8.422;2022-09-21T15:47:10;1.50;;;0.93;;
5458;SDS011;2752;49.992;8.422;2022-09-21T15:49:38;3.33;;;0.90;;
5458;SDS011;2752;49.992;8.422;2022-09-21T15:52:08;3.37;;;1.10;;
5458;SDS011;2752;49.992;8.422;2022-09-21T15:54:39;4.83;;;1.20;;
5458;SDS011;2752;49.992;8.422;2022-09-21T15:57:21;1.93;;;1.00;;
5458;SDS011;2752;49.992;8.422;2022-09-21T15:59:50;8.83;;;1.20;;
5458;SDS011;2752;49.992;8.422;2022-09-21T16:02:19;1.70;;;0.87;;
5458;SDS011;2752;49.992;8.422;2022-09-21T16:04:48;8.00;;;1.30;;
5458;SDS011;2752;49.992;8.422;2022-09-21T16:07:25;1.07;;;0.80;;
5458;SDS011;2752;49.992;8.422;2022-09-21T16:09:56;2.40;;;0.67;;
5458;SDS011;2752;49.992;8.422;2022-09-21T16:12:28;2.50;;;0.93;;
5458;SDS011;2752;49.992;8.422;2022-09-21T16:15:04;3.30;;;1.00;;
5458;SDS011;2752;49.992;8.422;2022-09-21T16:17:37;1.57;;;0.90;;
5458;SDS011;2752;49.992;8.422;2022-09-21T16:20:05;1.63;;;0.77;;
5458;SDS011;2752;49.992;8.422;2022-09-21T16:22:44;1.53;;;0.80;;
5458;SDS011;2752;49.992;8.422;2022-09-21T16:25:18;1.60;;;0.90;;
5458;SDS011;2752;49.992;8.422;2022-09-21T16:27:49;1.57;;;0.80;;
5458;SDS011;2752;49.992;8.422;2022-09-21T16:30:36;3.23;;;0.93;;
5458;SDS011;2752;49.992;8.422;2022-09-21T16:39:02;1.93;;;0.80;;
5458;SDS011;2752;49.992;8.422;2022-09-21T16:41:31;2.20;;;0.80;;
5458;SDS011;2752;49.992;8.422;2022-09-21T16:44:00;4.17;;;1.20;;
5458;SDS011;2752;49.992;8.422;2022-09-21T16:46:28;4.30;;;2.10;;
5458;SDS011;2752;49.992;8.422;2022-09-21T16:48:57;6.33;;;1.70;;
5458;SDS011;2752;49.992;8.422;2022-09-21T16:51:25;3.73;;;1.20;;
5458;SDS011;2752;49.992;8.422;2022-09-21T16:53:52;4.37;;;1.40;;
5458;SDS011;2752;49.992;8.422;2022-09-21T16:56:19;2.57;;;1.63;;
5458;SDS011;2752;49.992;8.422;2022-09-21T16:58:46;1.57;;;1.17;;
5458;SDS011;2752;49.992;8.422;2022-09-21T17:01:13;4.80;;;1.40;;
5458;SDS011;2752;49.992;8.422;2022-09-21T17:03:43;2.67;;;1.03;;
5458;SDS011;2752;49.992;8.422;2022-09-21T17:06:12;1.87;;;0.90;;
5458;SDS011;2752;49.992;8.422;2022-09-21T17:08:40;4.63;;;1.47;;
5458;SDS011;2752;49.992;8.422;2022-09-21T17:11:07;4.00;;;1.20;;
5458;SDS011;2752;49.992;8.422;2022-09-21T17:13:33;2.23;;;0.90;;
5458;SDS011;2752;49.992;8.422;2022-09-21T17:16:01;1.23;;;0.90;;
5458;SDS011;2752;49.992;8.422;2022-09-21T17:18:28;1.40;;;1.20;;
5458;SDS011;2752;49.992;8.422;2022-09-21T17:20:55;5.10;;;1.30;;
5458;SDS011;2752;49.992;8.422;2022-09-21T17:23:23;1.80;;;1.37;;
5458;SDS011;2752;49.992;8.422;2022-09-21T17:25:53;5.57;;;2.37;;
5458;SDS011;2752;49.992;8.422;2022-09-21T17:28:21;4.90;;;3.07;;
5458;SDS011;2752;49.992;8.422;2022-09-21T17:30:50;9.03;;;3.70;;
5458;SDS011;2752;49.992;8.422;2022-09-21T17:33:17;7.30;;;3.20;;
5458;SDS011;2752;49.992;8.422;2022-09-21T17:35:45;8.23;;;2.90;;
5458;SDS011;2752;49.992;8.422;2022-09-21T17:38:14;5.40;;;2.70;;
5458;SDS011;2752;49.992;8.422;2022-09-21T17:40:43;6.63;;;2.80;;
5458;SDS011;2752;49.992;8.422;2022-09-21T17:43:15;3.20;;;2.10;;
5458;SDS011;2752;49.992;8.422;2022-09-21T17:45:59;4.00;;;2.20;;
5458;SDS011;2752;49.992;8.422;2022-09-21T17:48:32;4.87;;;2.10;;
5458;SDS011;2752;49.992;8.422;2022-09-21T17:50:59;4.73;;;1.77;;
5458;SDS011;2752;49.992;8.422;2022-09-21T17:53:27;3.80;;;2.03;;
5458;SDS011;2752;49.992;8.422;2022-09-21T17:56:07;8.13;;;2.20;;
5458;SDS011;2752;49.992;8.422;2022-09-21T17:58:46;3.10;;;1.70;;
5458;SDS011;2752;49.992;8.422;2022-09-21T18:01:19;2.73;;;2.00;;
5458;SDS011;2752;49.992;8.422;2022-09-21T18:03:53;4.80;;;2.83;;
5458;SDS011;2752;49.992;8.422;2022-09-21T18:06:21;13.13;;;3.40;;
5458;SDS011;2752;49.992;8.422;2022-09-21T18:08:50;8.37;;;5.57;;
5458;SDS011;2752;49.992;8.422;2022-09-21T18:11:25;10.73;;;5.10;;
5458;SDS011;2752;49.992;8.422;2022-09-21T18:14:13;11.00;;;4.20;;
5458;SDS011;2752;49.992;8.422;2022-09-21T18:16:50;6.50;;;4.23;;
5458;SDS011;2752;49.992;8.422;2022-09-21T18:19:31;13.20;;;3.83;;
5458;SDS011;2752;49.992;8.422;2022-09-21T18:22:07;7.07;;;3.67;;
5458;SDS011;2752;49.992;8.422;2022-09-21T18:24:40;7.57;;;3.77;;
5458;SDS011;2752;49.992;8.422;2022-09-21T18:27:09;8.43;;;3.80;;
5458;SDS011;2752;49.992;8.422;2022-09-21T18:29:36;6.63;;;3.53;;
5458;SDS011;2752;49.992;8.422;2022-09-21T18:35:03;8.53;;;3.50;;
5458;SDS011;2752;49.992;8.422;2022-09-21T18:37:49;9.40;;;3.90;;
5458;SDS011;2752;49.992;8.422;2022-09-21T18:40:39;9.33;;;2.77;;
5458;SDS011;2752;49.992;8.422;2022-09-21T18:43:20;7.57;;;3.17;;
5458;SDS011;2752;49.992;8.422;2022-09-21T18:45:56;10.43;;;3.37;;
5458;SDS011;2752;49.992;8.422;2022-09-21T18:48:30;9.13;;;3.00;;
5458;SDS011;2752;49.992;8.422;2022-09-21T18:51:05;6.20;;;2.50;;
5458;SDS011;2752;49.992;8.422;2022-09-21T18:53:40;6.03;;;2.70;;
5458;SDS011;2752;49.992;8.422;2022-09-21T18:56:10;7.70;;;2.90;;
5458;SDS011;2752;49.992;8.422;2022-09-21T18:58:39;6.40;;;2.67;;
5458;SDS011;2752;49.992;8.422;2022-09-21T19:01:09;10.23;;;2.93;;
5458;SDS011;2752;49.992;8.422;2022-09-21T19:03:37;3.07;;;2.20;;
5458;SDS011;2752;49.992;8.422;2022-09-21T19:06:12;8.03;;;2.50;;
5458;SDS011;2752;49.992;8.422;2022-09-21T19:08:48;5.30;;;2.60;;
5458;SDS011;2752;49.992;8.422;2022-09-21T19:11:20;4.63;;;3.10;;
5458;SDS011;2752;49.992;8.422;2022-09-21T19:13:59;13.77;;;3.57;;
5458;SDS011;2752;49.992;8.422;2022-09-21T19:16:31;4.50;;;3.13;;
5458;SDS011;2752;49.992;8.422;2022-09-21T19:19:02;13.90;;;4.00;;
5458;SDS011;2752;49.992;8.422;2022-09-21T19:21:39;11.37;;;4.27;;
5458;SDS011;2752;49.992;8.422;2022-09-21T19:24:12;8.23;;;3.00;;
5458;SDS011;2752;49.992;8.422;2022-09-21T19:26:48;12.40;;;3.97;;
5458;SDS011;2752;49.992;8.422;2022-09-21T19:32:21;8.53;;;3.70;;
5458;SDS011;2752;49.992;8.422;2022-09-21T19:35:11;6.13;;;3.50;;
5458;SDS011;2752;49.992;8.422;2022-09-21T19:37:42;13.07;;;3.60;;
5458;SDS011;2752;49.992;8.422;2022-09-21T19:40:10;16.47;;;4.30;;
5458;SDS011;2752;49.992;8.422;2022-09-21T19:42:39;8.83;;;4.30;;
5458;SDS011;2752;49.992;8.422;2022-09-21T19:45:17;13.40;;;4.27;;
5458;SDS011;2752;49.992;8.422;2022-09-21T19:47:51;14.60;;;4.67;;
5458;SDS011;2752;49.992;8.422;2022-09-21T19:50:20;12.93;;;3.90;;
5458;SDS011;2752;49.992;8.422;2022-09-21T19:52:50;16.00;;;4.03;;
5458;SDS011;2752;49.992;8.422;2022-09-21T19:55:37;7.00;;;3.50;;
5458;SDS011;2752;49.992;8.422;2022-09-21T19:58:23;14.03;;;4.50;;
5458;SDS011;2752;49.992;8.422;2022-09-21T20:01:09;11.70;;;4.70;;
5458;SDS011;2752;49.992;8.422;2022-09-21T20:03:39;13.63;;;4.20;;
5458;SDS011;2752;49.992;8.422;2022-09-21T20:06:09;10.13;;;4.37;;
5458;SDS011;2752;49.992;8.422;2022-09-21T20:08:43;10.87;;;4.57;;
5458;SDS011;2752;49.992;8.422;2022-09-21T20:11:18;8.30;;;3.10;;
5458;SDS011;2752;49.992;8.422;2022-09-21T20:13:52;9.97;;;4.43;;
5458;SDS011;2752;49.992;8.422;2022-09-21T20:16:32;13.57;;;4.20;;
5458;SDS011;2752;49.992;8.422;2022-09-21T20:19:10;7.50;;;3.43;;
5458;SDS011;2752;49.992;8.422;2022-09-21T20:21:45;9.53;;;3.90;;
5458;SDS011;2752;49.992;8.422;2022-09-21T20:24:18;8.70;;;3.90;;
5458;SDS011;2752;49.992;8.422;2022-09-21T20:26:49;8.67;;;3.77;;
5458;SDS011;2752;49.992;8.422;2022-09-21T20:29:16;6.47;;;3.20;;
5458;SDS011;2752;49.992;8.422;2022-09-21T20:31:45;16.83;;;4.20;;
5458;SDS011;2752;49.992;8.422;2022-09-21T20:34:13;12.33;;;3.97;;
5458;SDS011;2752;49.992;8.422;2022-09-21T20:36:40;10.47;;;4.67;;
5458;SDS011;2752;49.992;8.422;2022-09-21T20:39:07;8.90;;;3.80;;
5458;SDS011;2752;49.992;8.422;2022-09-21T20:41:34;14.47;;;3.90;;
5458;SDS011;2752;49.992;8.422;2022-09-21T20:44:01;11.57;;;4.20;;
5458;SDS011;2752;49.992;8.422;2022-09-21T20:46:28;13.53;;;4.03;;
5458;SDS011;2752;49.992;8.422;2022-09-21T20:48:56;8.93;;;3.90;;
5458;SDS011;2752;49.992;8.422;2022-09-21T20:51:28;11.27;;;3.40;;
5458;SDS011;2752;49.992;8.422;2022-09-21T20:53:57;12.80;;;4.50;;
5458;SDS011;2752;49.992;8.422;2022-09-21T20:56:24;8.00;;;3.80;;
5458;SDS011;2752;49.992;8.422;2022-09-21T20:58:50;10.40;;;4.27;;
5458;SDS011;2752;49.992;8.422;2022-09-21T21:01:17;7.70;;;3.60;;
5458;SDS011;2752;49.992;8.422;2022-09-21T21:03:43;11.03;;;3.73;;
5458;SDS011;2752;49.992;8.422;2022-09-21T21:06:12;9.90;;;3.50;;
5458;SDS011;2752;49.992;8.422;2022-09-21T21:08:42;7.73;;;3.77;;
5458;SDS011;2752;49.992;8.422;2022-09-21T21:11:10;6.37;;;3.70;;
5458;SDS011;2752;49.992;8.422;2022-09-21T21:13:38;7.90;;;3.73;;
5458;SDS011;2752;49.992;8.422;2022-09-21T21:16:05;8.70;;;3.97;;
5458;SDS011;2752;49.992;8.422;2022-09-21T21:18:32;7.53;;;3.77;;